createdAt,value
2017-05-22T00:00:20.533Z,95946.73
2017-05-22T00:02:46.775Z,95941.33
2017-05-22T00:05:13.064Z,95938.31
2017-05-22T00:07:42.766Z,95939.53
2017-05-22T00:10:13.286Z,95932.25
2017-05-22T00:12:39.443Z,95933.42
2017-05-22T00:15:05.683Z,95930.70
2017-05-22T00:17:31.966Z,95923.66
2017-05-22T00:19:58.116Z,95923.41
2017-05-22T00:22:24.354Z,95917.59
2017-05-22T00:24:50.548Z,95918.78
2017-05-22T00:27:16.735Z,95919.08
2017-05-22T00:29:43.698Z,95921.47
2017-05-22T00:32:09.901Z,95921.34
2017-05-22T00:34:36.841Z,95918.91
2017-05-22T00:37:03.222Z,95911.09
2017-05-22T00:39:30.134Z,95909.83
2017-05-22T00:41:56.339Z,95915.11
2017-05-22T00:44:22.611Z,95921.32
2017-05-22T00:46:48.806Z,95914.38
2017-05-22T00:49:16.409Z,95897.05
2017-05-22T00:51:45.558Z,95905.55
2017-05-22T00:54:12.541Z,95902.16
2017-05-22T00:56:38.802Z,95902.20
2017-05-22T00:59:05.829Z,95901.02
2017-05-22T01:01:35.486Z,95897.21
2017-05-22T01:04:01.666Z,95888.72
2017-05-22T01:06:28.670Z,95883.66
2017-05-22T01:08:55.736Z,95882.06
2017-05-22T01:11:21.939Z,95879.94
2017-05-22T01:13:48.183Z,95867.38
2017-05-22T01:16:14.430Z,95870.08
2017-05-22T01:18:40.619Z,95866.31
2017-05-22T01:21:06.853Z,95862.00
2017-05-22T01:23:33.093Z,95858.45
2017-05-22T01:25:59.353Z,95853.97
2017-05-22T01:28:25.568Z,95855.81
2017-05-22T01:30:51.790Z,95849.08
2017-05-22T01:33:18.801Z,95842.73
2017-05-22T01:35:45.085Z,95840.94
2017-05-22T01:38:12.055Z,95837.69
2017-05-22T01:40:38.277Z,95845.41
2017-05-22T01:43:04.504Z,95837.43
2017-05-22T01:45:30.942Z,95833.36
2017-05-22T01:47:57.893Z,95842.94
2017-05-22T01:50:24.115Z,95836.20
2017-05-22T01:52:50.344Z,95847.41
2017-05-22T01:55:17.330Z,95846.54
2017-05-22T01:57:47.845Z,95849.16
2017-05-22T02:00:14.099Z,95851.30
2017-05-22T02:02:40.374Z,95852.90
2017-05-22T02:05:06.686Z,95847.77
2017-05-22T02:07:33.741Z,95845.80
2017-05-22T02:09:59.914Z,95840.88
2017-05-22T02:12:26.163Z,95837.66
2017-05-22T02:14:52.440Z,95835.37
2017-05-22T02:17:18.622Z,95829.14
2017-05-22T02:19:44.911Z,95832.03
2017-05-22T02:22:11.136Z,95832.03
2017-05-22T02:24:37.304Z,95830.53
2017-05-22T02:27:04.317Z,95829.41
2017-05-22T02:29:30.609Z,95832.33
2017-05-22T02:31:56.871Z,95828.10
2017-05-22T02:34:23.814Z,95828.30
2017-05-22T02:36:58.203Z,95829.25
2017-05-22T02:39:25.175Z,95818.11
2017-05-22T02:41:51.954Z,95813.66
2017-05-22T02:44:18.915Z,95816.08
2017-05-22T02:46:46.841Z,95816.33
2017-05-22T02:49:13.060Z,95816.20
2017-05-22T02:51:42.988Z,95811.05
2017-05-22T02:54:09.215Z,95806.98
2017-05-22T02:56:39.323Z,95807.36
2017-05-22T02:59:05.597Z,95801.75
2017-05-22T03:01:34.862Z,95800.83
2017-05-22T03:04:01.142Z,95796.22
2017-05-22T03:06:27.350Z,95790.42
2017-05-22T03:08:53.598Z,95788.10
2017-05-22T03:11:22.803Z,95789.61
2017-05-22T03:13:50.173Z,95789.40
2017-05-22T03:16:17.453Z,95791.20
2017-05-22T03:18:49.249Z,95786.98
2017-05-22T03:21:19.337Z,95788.55
2017-05-22T03:23:49.515Z,95785.52
2017-05-22T03:26:19.943Z,95786.37
2017-05-22T03:28:49.537Z,95787.07
2017-05-22T03:31:18.540Z,95780.92
2017-05-22T03:33:45.836Z,95783.00
2017-05-22T03:36:12.482Z,95782.05
2017-05-22T03:38:38.743Z,95778.15
2017-05-22T03:41:04.907Z,95779.45
2017-05-22T03:43:31.192Z,95778.31
2017-05-22T03:45:57.429Z,95779.14
2017-05-22T03:48:23.671Z,95782.80
2017-05-22T03:50:49.834Z,95786.52
2017-05-22T03:53:16.253Z,95792.21
2017-05-22T03:55:42.679Z,95796.31
2017-05-22T03:58:08.926Z,95804.77
2017-05-22T04:00:35.142Z,95812.73
2017-05-22T04:03:01.386Z,95817.72
2017-05-22T04:05:27.591Z,95815.53
2017-05-22T04:07:53.771Z,95811.55
2017-05-22T04:10:20.009Z,95813.31
2017-05-22T04:12:46.193Z,95810.95
2017-05-22T04:15:12.440Z,95810.95
2017-05-22T04:17:38.644Z,95811.41
2017-05-22T04:20:04.963Z,95813.97
2017-05-22T04:22:34.890Z,95817.03
2017-05-22T04:25:01.161Z,95818.70
2017-05-22T04:27:27.386Z,95813.76
2017-05-22T04:29:53.572Z,95811.10
2017-05-22T04:32:19.762Z,95808.78
2017-05-22T04:35:00.938Z,95798.45
2017-05-22T04:37:27.172Z,95802.27
2017-05-22T04:39:53.460Z,95802.40
2017-05-22T04:42:24.444Z,95802.73
2017-05-22T04:44:50.776Z,95800.34
2017-05-22T04:47:21.919Z,95801.34
2017-05-22T04:49:48.273Z,95803.81
2017-05-22T04:52:14.507Z,95811.72
2017-05-22T04:54:40.757Z,95806.89
2017-05-22T04:57:07.702Z,95802.89
2017-05-22T04:59:33.923Z,95803.59
2017-05-22T05:02:04.531Z,95809.91
2017-05-22T05:04:31.504Z,95806.14
2017-05-22T05:06:57.793Z,95806.33
2017-05-22T05:09:24.063Z,95812.84
2017-05-22T05:11:52.950Z,95815.02
2017-05-22T05:14:19.210Z,95813.42
2017-05-22T05:16:49.985Z,95809.61
2017-05-22T05:19:16.271Z,95810.61
2017-05-22T05:21:42.511Z,95809.55
2017-05-22T05:24:08.760Z,95825.98
2017-05-22T05:26:40.750Z,95824.27
2017-05-22T05:29:06.961Z,95823.05
2017-05-22T05:31:36.152Z,95821.02
2017-05-22T05:34:02.389Z,95825.88
2017-05-22T05:36:29.354Z,95830.83
2017-05-22T05:38:55.619Z,95825.36
2017-05-22T05:41:26.156Z,95831.59
2017-05-22T05:43:54.070Z,95824.63
2017-05-22T05:46:24.287Z,95832.47
2017-05-22T05:48:53.116Z,95827.29
2017-05-22T05:51:19.330Z,95831.02
2017-05-22T05:53:45.568Z,95831.91
2017-05-22T05:56:11.909Z,95832.84
2017-05-22T05:58:38.126Z,95832.66
2017-05-22T06:01:04.406Z,95833.53
2017-05-22T06:03:30.598Z,95830.54
2017-05-22T06:05:56.834Z,95830.68
2017-05-22T06:08:23.081Z,95831.20
2017-05-22T06:10:49.297Z,95828.24
2017-05-22T06:13:15.563Z,95828.00
2017-05-22T06:15:56.726Z,95826.56
2017-05-22T06:21:02.670Z,95819.92
2017-05-22T06:23:28.974Z,95827.94
2017-05-22T06:25:55.206Z,95824.84
2017-05-22T06:28:21.595Z,95824.55
2017-05-22T06:30:49.422Z,95828.70
2017-05-22T06:33:15.619Z,95831.19
2017-05-22T06:35:41.965Z,95835.41
2017-05-22T06:38:09.501Z,95831.34
2017-05-22T06:40:41.169Z,95822.63
2017-05-22T06:43:07.705Z,95823.20
2017-05-22T06:45:33.954Z,95829.24
2017-05-22T06:48:01.190Z,95824.58
2017-05-22T06:50:27.533Z,95828.14
2017-05-22T06:52:53.704Z,95824.24
2017-05-22T06:55:19.918Z,95829.52
2017-05-22T06:57:46.138Z,95832.72
2017-05-22T07:00:12.354Z,95830.10
2017-05-22T07:02:39.399Z,95822.45
2017-05-22T07:05:05.707Z,95822.47
2017-05-22T07:07:31.938Z,95826.59
2017-05-22T07:09:58.142Z,95828.25
2017-05-22T07:12:24.353Z,95821.89
2017-05-22T07:14:54.533Z,95819.06
2017-05-22T07:17:22.205Z,95819.99
2017-05-22T07:19:49.788Z,95815.65
2017-05-22T07:22:19.687Z,95814.28
2017-05-22T07:24:47.716Z,95814.84
2017-05-22T07:27:13.957Z,95813.34
2017-05-22T07:29:45.651Z,95810.61
2017-05-22T07:32:11.812Z,95810.30
2017-05-22T07:34:38.794Z,95815.48
2017-05-22T07:37:05.215Z,95813.28
2017-05-22T07:39:32.175Z,95811.37
2017-05-22T07:41:58.325Z,95815.32
2017-05-22T07:44:24.714Z,95809.77
2017-05-22T07:46:51.002Z,95801.43
2017-05-22T07:49:17.201Z,95807.74
2017-05-22T07:51:43.482Z,95809.92
2017-05-22T07:54:09.686Z,95804.71
2017-05-22T07:56:35.912Z,95807.17
2017-05-22T07:59:03.169Z,95805.47
2017-05-22T08:01:29.426Z,95800.91
2017-05-22T08:03:56.373Z,95800.20
2017-05-22T08:06:23.338Z,95791.53
2017-05-22T08:08:49.544Z,95799.03
2017-05-22T08:11:16.471Z,95792.47
2017-05-22T08:13:42.932Z,95793.37
2017-05-22T08:16:09.170Z,95791.83
2017-05-22T08:18:35.455Z,95800.27
2017-05-22T08:21:01.649Z,95795.99
2017-05-22T08:23:28.607Z,95788.62
2017-05-22T08:25:54.812Z,95785.90
2017-05-22T08:28:23.858Z,95785.86
2017-05-22T08:30:50.388Z,95785.03
2017-05-22T08:33:16.637Z,95782.66
2017-05-22T08:35:42.832Z,95786.11
2017-05-22T08:38:09.071Z,95786.00
2017-05-22T08:40:35.282Z,95781.27
2017-05-22T08:43:06.955Z,95784.11
2017-05-22T08:45:33.266Z,95777.77
2017-05-22T08:48:00.229Z,95778.51
2017-05-22T08:50:26.509Z,95763.25
2017-05-22T08:52:54.422Z,95768.58
2017-05-22T08:55:20.711Z,95765.31
2017-05-22T08:57:46.981Z,95769.55
2017-05-22T09:00:13.170Z,95769.19
2017-05-22T09:02:39.399Z,95775.27
2017-05-22T09:05:05.825Z,95771.05
2017-05-22T09:07:32.049Z,95766.32
2017-05-22T09:09:58.331Z,95768.97
2017-05-22T09:12:24.825Z,95763.27
2017-05-22T09:14:56.951Z,95761.47
2017-05-22T09:17:24.246Z,95763.14
2017-05-22T09:19:51.244Z,95761.96
2017-05-22T09:22:17.461Z,95767.48
2017-05-22T09:24:43.683Z,95757.09
2017-05-22T09:27:09.934Z,95757.38
2017-05-22T09:29:36.570Z,95748.23
2017-05-22T09:32:06.139Z,95747.66
2017-05-22T09:34:32.432Z,95743.48
2017-05-22T09:36:58.664Z,95733.78
2017-05-22T09:39:24.887Z,95739.08
2017-05-22T09:41:51.071Z,95742.22
2017-05-22T09:44:17.353Z,95732.24
2017-05-22T09:46:43.583Z,95733.70
2017-05-22T09:49:09.862Z,95728.62
2017-05-22T09:51:36.037Z,95726.78
2017-05-22T09:54:02.292Z,95729.67
2017-05-22T09:56:33.667Z,95729.69
2017-05-22T09:58:59.874Z,95727.86
2017-05-22T10:01:26.121Z,95730.81
2017-05-22T10:03:52.354Z,95719.22
2017-05-22T10:06:18.562Z,95723.81
2017-05-22T10:08:45.589Z,95722.67
2017-05-22T10:11:11.929Z,95713.15
2017-05-22T10:13:38.220Z,95718.77
2017-05-22T10:16:05.509Z,95715.10
2017-05-22T10:18:31.699Z,95713.62
2017-05-22T10:20:57.947Z,95702.37
2017-05-22T10:23:24.350Z,95703.22
2017-05-22T10:25:50.732Z,95703.20
2017-05-22T10:28:16.917Z,95706.61
2017-05-22T10:30:43.897Z,95696.66
2017-05-22T10:33:10.843Z,95689.05
2017-05-22T10:35:37.074Z,95688.63
2017-05-22T10:38:03.417Z,95690.75
2017-05-22T10:40:29.690Z,95700.03
2017-05-22T10:42:55.916Z,95690.83
2017-05-22T10:45:22.150Z,95693.47
2017-05-22T10:47:48.325Z,95681.18
2017-05-22T10:50:14.570Z,95682.99
2017-05-22T10:52:40.901Z,95687.31
2017-05-22T10:55:07.139Z,95684.35
2017-05-22T10:57:33.417Z,95678.92
2017-05-22T11:00:07.502Z,95675.93
2017-05-22T11:02:33.765Z,95672.30
2017-05-22T11:04:59.978Z,95669.22
2017-05-22T11:07:26.339Z,95665.06
2017-05-22T11:09:52.585Z,95668.43
2017-05-22T11:12:18.806Z,95668.11
2017-05-22T11:14:45.051Z,95674.39
2017-05-22T11:17:12.059Z,95663.92
2017-05-22T11:19:47.462Z,95664.72
2017-05-22T11:22:13.683Z,95655.28
2017-05-22T11:24:39.906Z,95663.52
2017-05-22T11:27:06.135Z,95662.03
2017-05-22T11:29:32.526Z,95662.31
2017-05-22T11:31:58.761Z,95655.59
2017-05-22T11:34:25.150Z,95650.26
2017-05-22T11:36:51.474Z,95650.27
2017-05-22T11:39:17.980Z,95643.92
2017-05-22T11:41:44.978Z,95644.64
2017-05-22T11:44:11.314Z,95648.36
2017-05-22T11:46:38.422Z,95641.44
2017-05-22T11:49:05.527Z,95640.76
2017-05-22T11:51:31.722Z,95638.09
2017-05-22T11:53:57.970Z,95635.81
2017-05-22T11:56:24.220Z,95637.51
2017-05-22T11:58:51.430Z,95639.18
2017-05-22T12:01:17.689Z,95634.07
2017-05-22T12:03:43.958Z,95639.73
2017-05-22T12:06:10.149Z,95633.80
2017-05-22T12:08:36.379Z,95633.17
2017-05-22T12:11:02.727Z,95632.53
2017-05-22T12:13:28.941Z,95628.73
2017-05-22T12:15:55.199Z,95632.70
2017-05-22T12:18:21.520Z,95634.47
2017-05-22T12:20:47.756Z,95629.42
2017-05-22T12:23:13.956Z,95633.61
2017-05-22T12:25:40.444Z,95637.33
2017-05-22T12:28:06.686Z,95623.42
2017-05-22T12:30:32.966Z,95626.68
2017-05-22T12:33:00.047Z,95622.67
2017-05-22T12:35:26.284Z,95622.99
2017-05-22T12:37:52.603Z,95625.77
2017-05-22T12:40:18.870Z,95621.25
2017-05-22T12:42:45.090Z,95627.09
2017-05-22T12:45:12.275Z,95625.57
2017-05-22T12:47:38.502Z,95625.14
2017-05-22T12:50:05.461Z,95621.84
2017-05-22T12:52:31.723Z,95620.36
2017-05-22T12:54:57.955Z,95620.98
2017-05-22T12:57:24.135Z,95612.85
2017-05-22T12:59:50.506Z,95609.83
2017-05-22T13:02:16.785Z,95607.14
2017-05-22T13:04:43.046Z,95608.84
2017-05-22T13:07:10.047Z,95601.98
2017-05-22T13:09:36.266Z,95600.48
2017-05-22T13:12:03.185Z,95596.58
2017-05-22T13:14:29.453Z,95596.16
2017-05-22T13:16:55.667Z,95590.55
2017-05-22T13:19:21.894Z,95591.80
2017-05-22T13:21:48.172Z,95583.58
2017-05-22T13:24:15.179Z,95585.33
2017-05-22T13:26:48.087Z,95583.13
2017-05-22T13:29:14.499Z,95579.77
2017-05-22T13:31:41.447Z,95580.06
2017-05-22T13:34:07.727Z,95574.29
2017-05-22T13:36:34.166Z,95570.09
2017-05-22T13:39:01.251Z,95577.12
2017-05-22T13:41:30.535Z,95568.41
2017-05-22T13:43:57.269Z,95569.57
2017-05-22T13:46:23.464Z,95567.82
2017-05-22T13:48:49.885Z,95564.85
2017-05-22T13:51:17.162Z,95554.95
2017-05-22T13:53:43.402Z,95560.22
2017-05-22T13:56:10.446Z,95565.22
2017-05-22T13:58:37.411Z,95560.29
2017-05-22T14:01:03.617Z,95558.91
2017-05-22T14:03:30.603Z,95550.62
2017-05-22T14:05:56.833Z,95550.56
2017-05-22T14:08:27.999Z,95552.09
2017-05-22T14:10:55.697Z,95546.77
2017-05-22T14:13:21.954Z,95547.20
2017-05-22T14:15:48.893Z,95543.22
2017-05-22T14:18:15.890Z,95543.61
2017-05-22T14:20:42.304Z,95541.14
2017-05-22T14:23:08.554Z,95536.86
2017-05-22T14:25:35.194Z,95535.10
2017-05-22T14:28:01.431Z,95535.57
2017-05-22T14:30:28.448Z,95530.98
2017-05-22T14:32:54.922Z,95527.66
2017-05-22T14:35:21.862Z,95522.27
2017-05-22T14:37:48.122Z,95519.37
2017-05-22T14:40:14.376Z,95517.64
2017-05-22T14:42:40.582Z,95521.92
2017-05-22T14:45:06.785Z,95517.59
2017-05-22T14:47:33.043Z,95518.78
2017-05-22T14:49:59.350Z,95523.23
2017-05-22T14:52:25.614Z,95515.08
2017-05-22T14:54:52.583Z,95514.54
2017-05-22T14:57:18.879Z,95509.66
2017-05-22T14:59:45.162Z,95513.48
2017-05-22T15:02:11.577Z,95511.11
2017-05-22T15:04:37.842Z,95508.44
2017-05-22T15:07:08.656Z,95511.19
2017-05-22T15:09:35.206Z,95510.70
2017-05-22T15:12:05.433Z,95504.50
2017-05-22T15:14:32.564Z,95506.54
2017-05-22T15:16:59.671Z,95501.68
2017-05-22T15:19:25.850Z,95501.29
2017-05-22T15:21:52.094Z,95494.30
2017-05-22T15:24:18.343Z,95496.22
2017-05-22T15:26:45.310Z,95494.36
2017-05-22T15:29:11.501Z,95496.63
2017-05-22T15:31:37.768Z,95487.95
2017-05-22T15:34:04.095Z,95495.70
2017-05-22T15:36:30.324Z,95492.21
2017-05-22T15:38:56.760Z,95502.09
2017-05-22T15:41:22.992Z,95494.61
2017-05-22T15:43:49.261Z,95497.06
2017-05-22T15:46:16.329Z,95496.06
2017-05-22T15:48:42.523Z,95488.91
2017-05-22T15:51:08.720Z,95486.65
2017-05-22T15:53:35.020Z,95497.81
2017-05-22T15:56:01.226Z,95491.22
2017-05-22T15:58:27.450Z,95496.22
2017-05-22T16:00:53.706Z,95493.88
2017-05-22T16:03:19.914Z,95488.19
2017-05-22T16:05:46.861Z,95484.47
2017-05-22T16:08:13.103Z,95481.68
2017-05-22T16:10:39.341Z,95486.47
2017-05-22T16:13:05.569Z,95487.55
2017-05-22T16:15:31.813Z,95486.29
2017-05-22T16:17:58.737Z,95482.75
2017-05-22T16:20:24.989Z,95480.24
2017-05-22T16:22:51.945Z,95484.09
2017-05-22T16:25:18.157Z,95476.77
2017-05-22T16:27:44.388Z,95472.33
2017-05-22T16:30:11.386Z,95473.10
2017-05-22T16:32:37.616Z,95472.13
2017-05-22T16:35:06.122Z,95474.45
2017-05-22T16:37:32.338Z,95466.52
2017-05-22T16:39:58.537Z,95475.39
2017-05-22T16:42:25.507Z,95473.84
2017-05-22T16:44:51.762Z,95475.21
2017-05-22T16:47:17.940Z,95475.19
2017-05-22T16:49:44.970Z,95475.97
2017-05-22T16:52:11.319Z,95471.92
2017-05-22T16:54:37.573Z,95477.23
2017-05-22T16:57:04.623Z,95474.51
2017-05-22T16:59:30.899Z,95472.36
2017-05-22T17:01:57.126Z,95469.38
2017-05-22T17:04:23.358Z,95476.14
2017-05-22T17:06:49.637Z,95477.19
2017-05-22T17:09:15.862Z,95471.78
2017-05-22T17:11:42.194Z,95483.95
2017-05-22T17:14:08.409Z,95478.50
2017-05-22T17:16:37.161Z,95477.39
2017-05-22T17:19:03.397Z,95483.55
2017-05-22T17:21:30.058Z,95485.59
2017-05-22T17:23:56.299Z,95488.27
2017-05-22T17:26:23.982Z,95481.63
2017-05-22T17:28:50.322Z,95483.25
2017-05-22T17:31:16.821Z,95490.19
2017-05-22T17:33:43.734Z,95489.36
2017-05-22T17:36:10.065Z,95492.53
2017-05-22T17:38:39.923Z,95492.63
2017-05-22T17:41:06.170Z,95497.79
2017-05-22T17:43:32.470Z,95497.13
2017-05-22T17:45:59.634Z,95497.50
2017-05-22T17:50:07.676Z,95503.75
2017-05-22T17:52:34.103Z,95502.98
2017-05-22T17:55:00.527Z,95509.40
2017-05-22T17:57:26.870Z,95508.12
2017-05-22T17:59:53.251Z,95511.29
2017-05-22T18:02:19.533Z,95509.11
2017-05-22T18:04:45.726Z,95513.77
2017-05-22T18:07:11.930Z,95515.08
2017-05-22T18:09:38.107Z,95520.04
2017-05-22T18:12:04.337Z,95518.97
2017-05-22T18:14:31.315Z,95520.69
2017-05-22T18:16:57.537Z,95523.43
2017-05-22T18:19:23.772Z,95525.43
2017-05-22T18:21:50.044Z,95519.17
2017-05-22T18:24:16.242Z,95519.27
2017-05-22T18:26:43.175Z,95520.13
2017-05-22T18:29:09.531Z,95522.70
2017-05-22T18:31:35.921Z,95524.96
2017-05-22T18:34:02.217Z,95522.56
2017-05-22T18:36:28.489Z,95527.09
2017-05-22T18:38:55.530Z,95525.25
2017-05-22T18:41:23.351Z,95526.96
2017-05-22T18:43:49.607Z,95531.91
2017-05-22T18:46:15.908Z,95531.88
2017-05-22T18:48:42.172Z,95533.29
2017-05-22T18:51:08.590Z,95532.47
2017-05-22T18:53:34.838Z,95534.23
2017-05-22T18:56:01.810Z,95542.63
2017-05-22T18:58:28.073Z,95548.30
2017-05-22T19:00:54.366Z,95546.16
2017-05-22T19:03:21.335Z,95550.57
2017-05-22T19:05:47.566Z,95553.64
2017-05-22T19:08:14.484Z,95555.94
2017-05-22T19:10:40.740Z,95555.96
2017-05-22T19:13:07.282Z,95554.60
2017-05-22T19:15:34.199Z,95559.88
2017-05-22T19:18:00.443Z,95565.31
2017-05-22T19:20:27.448Z,95566.25
2017-05-22T19:22:57.732Z,95562.81
2017-05-22T19:25:24.670Z,95564.83
2017-05-22T19:27:50.965Z,95563.45
2017-05-22T19:30:17.181Z,95568.06
2017-05-22T19:32:43.448Z,95571.36
2017-05-22T19:35:10.502Z,95572.37
2017-05-22T19:37:36.804Z,95568.52
2017-05-22T19:40:02.995Z,95573.12
2017-05-22T19:42:29.249Z,95569.22
2017-05-22T19:44:55.426Z,95570.92
2017-05-22T19:47:22.434Z,95572.90
2017-05-22T19:49:48.872Z,95573.34
2017-05-22T19:52:15.123Z,95575.16
2017-05-22T19:54:41.346Z,95574.73
2017-05-22T19:57:07.603Z,95573.86
2017-05-22T19:59:33.814Z,95579.20
2017-05-22T20:02:00.882Z,95582.63
2017-05-22T20:04:27.112Z,95582.06
2017-05-22T20:06:53.333Z,95579.89
2017-05-22T20:09:19.546Z,95581.42
2017-05-22T20:11:46.018Z,95587.67
2017-05-22T20:14:12.238Z,95587.52
2017-05-22T20:16:40.249Z,95587.95
2017-05-22T20:19:07.298Z,95586.11
2017-05-22T20:21:33.498Z,95582.25
2017-05-22T20:23:59.947Z,95578.91
2017-05-22T20:26:26.222Z,95576.90
2017-05-22T20:28:52.688Z,95583.45
2017-05-22T20:31:18.939Z,95582.53
2017-05-22T20:33:45.931Z,95582.54
2017-05-22T20:36:12.170Z,95584.62
2017-05-22T20:38:38.366Z,95581.64
2017-05-22T20:41:04.797Z,95582.77
2017-05-22T20:43:31.050Z,95589.15
2017-05-22T20:45:58.002Z,95586.19
2017-05-22T20:48:24.935Z,95587.30
2017-05-22T20:50:51.176Z,95585.25
2017-05-22T20:53:18.442Z,95579.84
2017-05-22T20:55:44.674Z,95582.47
2017-05-22T20:58:10.940Z,95574.05
2017-05-22T21:00:37.196Z,95577.98
2017-05-22T21:03:03.474Z,95580.61
2017-05-22T21:05:29.733Z,95573.33
2017-05-22T21:07:56.007Z,95572.00
2017-05-22T21:10:22.273Z,95570.51
2017-05-22T21:12:48.482Z,95572.01
2017-05-22T21:15:14.777Z,95573.89
2017-05-22T21:17:40.987Z,95577.25
2017-05-22T21:20:08.000Z,95581.56
2017-05-22T21:22:34.302Z,95578.17
2017-05-22T21:25:00.469Z,95581.92
2017-05-22T21:27:26.739Z,95582.48
2017-05-22T21:29:53.035Z,95580.05
2017-05-22T21:32:19.315Z,95579.30
2017-05-22T21:34:45.569Z,95579.50
2017-05-22T21:37:11.789Z,95577.63
2017-05-22T21:39:38.006Z,95579.87
2017-05-22T21:42:04.274Z,95582.29
2017-05-22T21:44:30.470Z,95579.48
2017-05-22T21:46:57.446Z,95575.20
2017-05-22T21:49:25.761Z,95575.58
2017-05-22T21:51:52.982Z,95580.42
2017-05-22T21:54:19.203Z,95578.55
2017-05-22T21:56:45.426Z,95576.09
2017-05-22T21:59:11.924Z,95580.39
2017-05-22T22:01:38.089Z,95582.25
2017-05-22T22:04:05.430Z,95577.96
2017-05-22T22:06:31.756Z,95580.39
2017-05-22T22:08:58.144Z,95574.79
2017-05-22T22:11:24.394Z,95579.64
2017-05-22T22:13:50.602Z,95580.14
2017-05-22T22:16:16.919Z,95578.83
2017-05-22T22:18:43.486Z,95586.48
2017-05-22T22:21:09.706Z,95581.48
2017-05-22T22:23:35.990Z,95585.43
2017-05-22T22:26:02.195Z,95592.53
2017-05-22T22:28:28.414Z,95594.20
2017-05-22T22:30:54.601Z,95598.16
2017-05-22T22:33:20.809Z,95587.14
2017-05-22T22:35:47.154Z,95584.34
2017-05-22T22:38:13.569Z,95592.18
2017-05-22T22:40:39.752Z,95592.95
2017-05-22T22:43:05.921Z,95592.58
2017-05-22T22:45:32.171Z,95592.39
2017-05-22T22:47:59.145Z,95591.45
2017-05-22T22:50:25.428Z,95586.78
2017-05-22T22:52:51.714Z,95590.33
2017-05-22T22:55:17.963Z,95589.78
2017-05-22T22:57:44.137Z,95584.91
2017-05-22T23:00:14.516Z,95584.72
2017-05-22T23:02:40.714Z,95585.09
2017-05-22T23:05:06.974Z,95593.88
2017-05-22T23:07:33.245Z,95592.77
2017-05-22T23:10:00.245Z,95595.00
2017-05-22T23:12:27.511Z,95583.62
2017-05-22T23:14:54.870Z,95580.97
2017-05-22T23:17:23.160Z,95580.25
2017-05-22T23:19:52.925Z,95582.48
2017-05-22T23:22:19.397Z,95577.42
2017-05-22T23:24:49.928Z,95579.67
2017-05-22T23:27:16.171Z,95580.80
2017-05-22T23:29:47.556Z,95571.45
2017-05-22T23:32:14.458Z,95579.85
2017-05-22T23:34:44.312Z,95588.45
2017-05-22T23:37:13.606Z,95580.80
2017-05-22T23:39:39.821Z,95579.30
2017-05-22T23:42:06.038Z,95572.56
2017-05-22T23:44:35.957Z,95576.85
2017-05-22T23:47:02.181Z,95575.73
2017-05-22T23:49:31.931Z,95583.05
2017-05-22T23:51:58.350Z,95586.41
2017-05-22T23:54:28.642Z,95582.48
2017-05-22T23:56:54.834Z,95586.23
2017-05-22T23:59:25.323Z,95586.77
